createdAt,value
2022-10-15T00:01:47.813Z,99895.41
2022-10-15T00:06:49.336Z,99891.16
2022-10-15T00:11:51.374Z,99883.31
2022-10-15T00:16:52.798Z,99887.16
2022-10-15T00:21:54.270Z,99884.28
2022-10-15T00:26:55.731Z,99878.59
2022-10-15T00:31:57.261Z,99874.75
2022-10-15T00:36:58.669Z,99876.31
2022-10-15T00:42:00.290Z,99855.50
2022-10-15T00:47:18.959Z,99863.03
2022-10-15T00:52:26.022Z,99853.16
2022-10-15T00:57:28.096Z,99852.44
2022-10-15T01:02:29.628Z,99852.53
2022-10-15T01:07:31.055Z,99843.00
2022-10-15T01:12:47.845Z,99835.69
2022-10-15T01:17:58.867Z,99835.09
2022-10-15T01:23:15.296Z,99820.53
2022-10-15T01:28:46.911Z,99820.25
2022-10-15T01:33:54.475Z,99810.44
2022-10-15T01:39:01.457Z,99803.53
2022-10-15T01:44:08.646Z,99805.25
2022-10-15T01:49:14.002Z,99774.53
2022-10-15T01:54:18.543Z,99778.94
2022-10-15T01:59:23.994Z,99778.59
2022-10-15T02:04:27.893Z,99781.56
2022-10-15T02:09:33.805Z,99774.16
2022-10-15T02:14:53.104Z,99765.78
2022-10-15T02:20:14.349Z,99773.31
2022-10-15T02:25:20.742Z,99757.16
2022-10-15T02:30:23.284Z,99751.34
2022-10-15T02:35:26.764Z,99748.03
2022-10-15T02:40:31.270Z,99744.63
2022-10-15T02:45:32.841Z,99736.06
2022-10-15T02:50:34.307Z,99738.97
2022-10-15T02:55:35.965Z,99727.41
2022-10-15T03:00:37.498Z,99732.25
2022-10-15T03:05:38.981Z,99723.84
2022-10-15T03:10:40.405Z,99711.88
2022-10-15T03:15:41.919Z,99705.81
2022-10-15T03:20:43.393Z,99699.59
2022-10-15T03:25:44.790Z,99699.28
2022-10-15T03:30:46.569Z,99705.28
2022-10-15T03:35:48.051Z,99695.63
2022-10-15T03:40:49.463Z,99693.56
2022-10-15T03:45:50.939Z,99689.06
2022-10-15T03:50:52.368Z,99684.97
2022-10-15T03:55:53.823Z,99681.16
2022-10-15T04:00:55.294Z,99680.34
2022-10-15T04:05:57.677Z,99673.78
2022-10-15T04:11:01.329Z,99675.47
2022-10-15T04:16:05.975Z,99672.19
2022-10-15T04:21:07.421Z,99666.81
2022-10-15T04:26:09.068Z,99655.56
2022-10-15T04:31:10.668Z,99652.16
2022-10-15T04:36:13.818Z,99658.94
2022-10-15T04:41:15.303Z,99663.94
2022-10-15T04:46:16.881Z,99654.59
2022-10-15T04:51:20.522Z,99657.03
2022-10-15T04:56:22.761Z,99675.19
2022-10-15T05:01:24.189Z,99665.00
2022-10-15T05:06:25.612Z,99664.44
2022-10-15T05:11:27.802Z,99677.00
2022-10-15T05:16:30.516Z,99677.41
2022-10-15T05:21:33.579Z,99658.66
2022-10-15T05:26:35.109Z,99661.63
2022-10-15T05:31:36.518Z,99655.22
2022-10-15T05:36:38.412Z,99646.00
2022-10-15T05:41:39.845Z,99644.59
2022-10-15T05:46:41.310Z,99634.78
2022-10-15T05:51:42.832Z,99649.16
2022-10-15T05:56:44.271Z,99652.81
2022-10-15T06:01:45.840Z,99658.88
2022-10-15T06:06:47.554Z,99657.97
2022-10-15T06:11:49.009Z,99664.00
2022-10-15T06:16:50.789Z,99670.94
2022-10-15T06:21:52.190Z,99669.91
2022-10-15T06:26:53.634Z,99679.22
2022-10-15T06:31:55.078Z,99673.69
2022-10-15T06:36:56.703Z,99677.41
2022-10-15T06:41:58.117Z,99684.78
2022-10-15T06:46:59.584Z,99691.06
2022-10-15T06:52:03.823Z,99694.66
2022-10-15T06:57:05.515Z,99697.34
2022-10-15T07:02:07.100Z,99690.34
2022-10-15T07:07:08.548Z,99701.59
2022-10-15T07:12:10.024Z,99703.88
2022-10-15T07:17:11.417Z,99702.53
2022-10-15T07:22:12.900Z,99711.50
2022-10-15T07:27:18.913Z,99730.94
2022-10-15T07:32:20.901Z,99721.63
2022-10-15T07:37:22.486Z,99721.53
2022-10-15T07:42:23.981Z,99720.88
2022-10-15T07:47:25.758Z,99719.38
2022-10-15T07:52:27.655Z,99722.38
2022-10-15T07:57:29.121Z,99723.81
2022-10-15T08:02:30.533Z,99723.97
2022-10-15T08:07:31.993Z,99721.38
2022-10-15T08:12:33.448Z,99721.81
2022-10-15T08:17:34.878Z,99719.50
2022-10-15T08:22:36.362Z,99717.53
2022-10-15T08:27:37.805Z,99728.47
2022-10-15T08:32:39.242Z,99734.03
2022-10-15T08:37:40.643Z,99742.19
2022-10-15T08:42:45.023Z,99735.22
2022-10-15T08:47:50.701Z,99741.03
2022-10-15T08:52:54.329Z,99738.41
2022-10-15T08:58:08.096Z,99746.97
2022-10-15T09:03:18.428Z,99734.53
2022-10-15T09:08:35.374Z,99727.06
2022-10-15T09:13:40.851Z,99738.28
2022-10-15T09:18:46.245Z,99739.34
2022-10-15T09:23:47.710Z,99739.66
2022-10-15T09:29:06.777Z,99740.19
2022-10-15T09:34:27.592Z,99742.97
2022-10-15T09:39:35.895Z,99747.47
2022-10-15T09:44:45.715Z,99751.19
2022-10-15T09:49:47.147Z,99753.09
2022-10-15T09:54:57.782Z,99761.66
2022-10-15T10:00:01.703Z,99762.06
2022-10-15T10:05:29.254Z,99769.34
2022-10-15T10:10:30.853Z,99770.56
2022-10-15T10:15:39.233Z,99775.91
2022-10-15T10:20:52.878Z,99774.94
2022-10-15T10:25:56.214Z,99777.44
2022-10-15T10:30:57.622Z,99769.84
2022-10-15T10:35:59.941Z,99776.88
2022-10-15T10:41:19.380Z,99770.47
2022-10-15T10:46:25.068Z,99774.06
2022-10-15T10:51:27.874Z,99768.66
2022-10-15T10:56:41.047Z,99771.16
2022-10-15T11:01:42.603Z,99761.00
2022-10-15T11:07:03.671Z,99764.41
2022-10-15T11:12:35.732Z,99754.84
2022-10-15T11:18:00.161Z,99751.31
2022-10-15T11:23:29.309Z,99742.84
2022-10-15T11:29:10.077Z,99740.16
2022-10-15T11:34:14.150Z,99730.28
2022-10-15T11:39:27.544Z,99746.00
2022-10-15T11:44:36.789Z,99734.72
2022-10-15T11:50:04.800Z,99738.31
2022-10-15T11:55:12.723Z,99733.03
2022-10-15T12:00:33.463Z,99736.59
2022-10-15T12:05:40.131Z,99725.50
2022-10-15T12:10:59.572Z,99728.75
2022-10-15T12:16:14.732Z,99732.69
2022-10-15T12:21:33.603Z,99748.53
2022-10-15T12:26:35.288Z,99738.47
2022-10-15T12:31:56.953Z,99739.16
2022-10-15T12:37:14.033Z,99743.59
2022-10-15T12:42:36.132Z,99718.56
2022-10-15T12:47:55.523Z,99722.47
2022-10-15T12:53:02.047Z,99728.94
2022-10-15T12:58:06.757Z,99722.81
2022-10-15T13:03:09.766Z,99725.69
2022-10-15T13:08:16.363Z,99733.03
2022-10-15T13:13:21.273Z,99739.16
2022-10-15T13:18:23.389Z,99737.97
2022-10-15T13:23:33.176Z,99735.06
2022-10-15T13:28:37.995Z,99737.63
2022-10-15T13:33:43.182Z,99738.63
2022-10-15T13:38:52.564Z,99731.50
2022-10-15T13:43:58.671Z,99742.91
2022-10-15T13:49:02.943Z,99745.47
2022-10-15T13:54:10.450Z,99742.72
2022-10-15T13:59:19.333Z,99754.28
2022-10-15T14:04:21.952Z,99766.72
2022-10-15T14:09:29.280Z,99760.03
2022-10-15T14:14:43.855Z,99759.72
2022-10-15T14:20:02.160Z,99760.22
2022-10-15T14:30:20.899Z,99758.31
2022-10-15T14:35:23.941Z,99761.88
2022-10-15T14:40:25.903Z,99755.78
2022-10-15T14:45:28.950Z,99757.97
2022-10-15T14:50:33.423Z,99753.56
2022-10-15T14:55:40.292Z,99751.94
2022-10-15T15:00:54.476Z,99752.94
2022-10-15T15:05:57.326Z,99758.78
2022-10-15T15:11:01.518Z,99765.22
2022-10-15T15:16:03.439Z,99775.56
2022-10-15T15:21:07.899Z,99777.59
2022-10-15T15:26:09.361Z,99781.97
2022-10-15T15:31:17.387Z,99783.78
2022-10-15T15:36:20.868Z,99796.94
2022-10-15T15:41:25.773Z,99795.75
2022-10-15T15:46:27.265Z,99797.91
2022-10-15T15:51:31.745Z,99806.53
2022-10-15T15:56:34.908Z,99804.53
2022-10-15T16:01:36.812Z,99804.00
2022-10-15T16:06:39.668Z,99809.84
2022-10-15T16:11:41.097Z,99812.34
2022-10-15T16:16:42.574Z,99820.50
2022-10-15T16:21:43.989Z,99827.13
2022-10-15T16:26:45.626Z,99836.50
2022-10-15T16:31:47.192Z,99839.38
2022-10-15T16:36:48.989Z,99840.22
2022-10-15T16:41:50.749Z,99838.00
2022-10-15T16:46:52.642Z,99846.91
2022-10-15T16:51:54.075Z,99845.03
2022-10-15T16:56:55.488Z,99847.91
2022-10-15T17:01:57.096Z,99852.66
2022-10-15T17:06:58.622Z,99856.53
2022-10-15T17:12:00.041Z,99867.09
2022-10-15T17:17:01.501Z,99878.63
2022-10-15T17:22:02.909Z,99882.81
2022-10-15T17:27:04.332Z,99891.16
2022-10-15T17:32:05.759Z,99891.44
2022-10-15T17:37:07.823Z,99891.00
2022-10-15T17:42:09.336Z,99894.31
2022-10-15T17:47:10.899Z,99904.97
2022-10-15T17:52:12.831Z,99904.34
2022-10-15T17:57:14.267Z,99900.38
2022-10-15T18:02:15.734Z,99907.69
2022-10-15T18:07:18.776Z,99913.06
2022-10-15T18:12:20.188Z,99919.47
2022-10-15T18:17:21.603Z,99922.09
2022-10-15T18:22:23.215Z,99911.81
2022-10-15T18:27:24.955Z,99917.94
2022-10-15T18:32:26.641Z,99919.81
2022-10-15T18:37:28.237Z,99922.78
2022-10-15T18:42:29.757Z,99928.75
2022-10-15T18:47:31.156Z,99944.84
2022-10-15T18:52:39.784Z,99933.75
2022-10-15T18:57:41.975Z,99931.22
2022-10-15T19:02:43.435Z,99933.22
2022-10-15T19:07:45.260Z,99943.41
2022-10-15T19:12:46.691Z,99952.47
2022-10-15T19:17:48.111Z,99954.47
2022-10-15T19:22:49.527Z,99952.84
2022-10-15T19:27:51.045Z,99951.03
2022-10-15T19:32:52.496Z,99965.03
2022-10-15T19:37:53.891Z,99974.09
2022-10-15T19:42:55.291Z,99972.56
2022-10-15T19:48:01.464Z,99974.56
2022-10-15T19:53:04.575Z,99980.16
2022-10-15T19:58:06.754Z,99987.31
2022-10-15T20:03:09.261Z,99992.31
2022-10-15T20:08:11.685Z,99997.22
2022-10-15T20:13:15.266Z,99987.25
2022-10-15T20:18:16.915Z,99991.69
2022-10-15T20:23:18.371Z,100011.53
2022-10-15T20:28:20.553Z,100003.97
2022-10-15T20:33:22.082Z,100016.25
2022-10-15T20:38:23.488Z,100013.50
2022-10-15T20:43:25.165Z,100018.63
2022-10-15T20:48:27.240Z,100015.38
2022-10-15T20:53:30.060Z,100027.66
2022-10-15T20:58:31.765Z,100031.69
2022-10-15T21:03:33.784Z,100042.66
2022-10-15T21:08:36.244Z,100039.09
2022-10-15T21:13:37.707Z,100030.66
2022-10-15T21:18:39.683Z,100042.53
2022-10-15T21:23:42.190Z,100040.09
2022-10-15T21:28:43.961Z,100045.53
2022-10-15T21:33:46.118Z,100052.81
2022-10-15T21:39:08.515Z,100042.97
2022-10-15T21:44:09.908Z,100056.41
2022-10-15T21:49:11.489Z,100047.53
2022-10-15T21:54:12.954Z,100058.97
2022-10-15T21:59:15.537Z,100068.09
2022-10-15T22:04:17.045Z,100068.69
2022-10-15T22:09:18.450Z,100077.81
2022-10-15T22:14:19.975Z,100096.38
2022-10-15T22:19:21.447Z,100090.69
2022-10-15T22:24:22.845Z,100095.38
2022-10-15T22:29:32.954Z,100076.94
2022-10-15T22:34:36.103Z,100089.50
2022-10-15T22:39:37.544Z,100097.22
2022-10-15T22:44:39.046Z,100095.53
2022-10-15T22:49:40.603Z,100109.22
2022-10-15T22:54:42.054Z,100100.38
2022-10-15T22:59:44.195Z,100120.50
2022-10-15T23:04:45.636Z,100124.53
2022-10-15T23:09:48.647Z,100121.94
2022-10-15T23:14:50.048Z,100102.66
2022-10-15T23:19:51.445Z,100104.63
2022-10-15T23:24:52.849Z,100094.06
2022-10-15T23:30:02.009Z,100108.28
2022-10-15T23:35:15.637Z,100109.72
2022-10-15T23:40:17.087Z,100112.59
2022-10-15T23:45:18.530Z,100118.31
2022-10-15T23:50:20.005Z,100120.06
2022-10-15T23:55:21.431Z,100123.44
